LIME/BGY METAR and TAF weather

Enter ICAO airport designator
Station Type Date Time Source
LIME METAR 2021/05/14 22:50 UTC NOAA

LIME 142250Z VRB02KT 9999 BKN060 10/10 Q1010 NOSIG


Station Type Date Time Source
LIME Decoded METAR 2021/05/14 22:50 UTC NOAA

Bergamo / Orio Al Serio, Italy (LIME) 45-40N 009-42E 237M
May 14, 2021 - 06:50 PM EDT / 2021.05.14 2250 UTC
Wind: Variable at 2 MPH (2 KT):0
Visibility: greater than 7 mile(s):0
Sky conditions: mostly cloudy
Temperature: 50 F (10 C)
Dew Point: 50 F (10 C)
Relative Humidity: 100%
Pressure (altimeter): 29.83 in. Hg (1010 hPa)
ob: LIME 142250Z VRB02KT 9999 BKN060 10/10 Q1010 NOSIG
cycle: 23

Station Type Date Time Source
LIME TAF 2021/05/14 18:21 UTC NOAA

TAF LIME 141700Z 1418/1518 VRB05KT 9999 SCT030
TEMPO 1418/1421 RA

Example: see airport list